createdAt,value
2022-07-29T13:38:49.723Z,61.04
2022-07-29T13:39:52.727Z,60.42
2022-07-29T13:41:53.627Z,59.31
2022-07-29T13:42:53.602Z,59.97
2022-07-29T13:44:57.530Z,60.03
2022-07-29T13:45:57.575Z,61.33
2022-07-29T13:48:01.425Z,60.94
2022-07-29T13:49:01.444Z,60.46
2022-07-29T13:51:05.294Z,60.29
2022-07-29T13:52:05.269Z,58.95
2022-07-29T13:54:09.198Z,58.11
2022-07-29T13:55:09.166Z,58.20
2022-07-29T13:57:13.090Z,58.63
2022-07-29T13:58:13.050Z,59.12
2022-07-29T14:00:16.980Z,59.05
2022-07-29T14:01:16.990Z,59.15
2022-07-29T14:03:20.872Z,59.38
2022-07-29T14:04:20.945Z,59.97
2022-07-29T14:06:24.755Z,58.95
2022-07-29T14:07:24.727Z,58.44
2022-07-29T14:09:28.661Z,57.85
2022-07-29T14:10:28.623Z,58.83
2022-07-29T14:12:32.544Z,57.78
2022-07-29T14:13:32.522Z,56.71
2022-07-29T14:15:25.382Z,57.10
2022-07-29T14:16:25.373Z,55.96
2022-07-29T14:18:29.262Z,55.03
2022-07-29T14:19:29.236Z,55.03
2022-07-29T14:21:33.165Z,54.32
2022-07-29T14:22:33.128Z,55.47
2022-07-29T14:24:37.557Z,54.88
2022-07-29T14:25:37.025Z,55.27
2022-07-29T14:27:40.959Z,55.79
2022-07-29T14:28:42.033Z,55.13
2022-07-29T14:29:40.897Z,54.95
2022-07-29T14:30:40.874Z,55.63
2022-07-29T14:31:40.893Z,55.47
2022-07-29T14:32:40.832Z,55.34
2022-07-29T14:33:40.803Z,56.20
2022-07-29T14:34:40.786Z,56.90
2022-07-29T14:35:40.763Z,55.66
2022-07-29T14:36:40.739Z,55.32
2022-07-29T14:37:40.934Z,55.47
2022-07-29T14:38:40.710Z,54.88
2022-07-29T14:39:43.220Z,55.00
2022-07-29T14:40:40.701Z,54.61
2022-07-29T14:41:40.643Z,54.74
2022-07-29T14:42:40.660Z,55.96
2022-07-29T14:43:40.615Z,55.49
2022-07-29T14:44:40.585Z,55.62
2022-07-29T14:45:40.595Z,55.22
2022-07-29T14:46:40.518Z,55.69
2022-07-29T14:47:40.492Z,56.05
2022-07-29T14:48:40.569Z,55.96
2022-07-29T14:49:40.455Z,56.20
2022-07-29T14:50:40.430Z,54.86
2022-07-29T14:51:40.414Z,54.38
2022-07-29T14:52:40.425Z,54.15
2022-07-29T14:53:40.360Z,55.22
2022-07-29T14:54:40.342Z,55.10
2022-07-29T14:55:40.319Z,55.57
2022-07-29T14:56:46.516Z,55.37
2022-07-29T14:57:40.277Z,55.00
2022-07-29T14:58:40.252Z,54.10
2022-07-29T14:59:40.228Z,53.74
2022-07-29T15:00:40.207Z,54.42
2022-07-29T15:01:40.242Z,55.15
2022-07-29T15:03:00.564Z,54.79
2022-07-29T15:03:40.140Z,55.61
2022-07-29T15:04:40.125Z,55.24
2022-07-29T15:05:40.097Z,54.85
2022-07-29T15:06:40.074Z,54.93
2022-07-29T15:07:40.052Z,55.09
2022-07-29T15:08:40.029Z,55.09
2022-07-29T15:09:40.267Z,55.77
2022-07-29T15:10:39.986Z,55.61
2022-07-29T15:11:39.960Z,55.90
2022-07-29T15:12:39.938Z,55.23
2022-07-29T15:13:39.964Z,56.23
2022-07-29T15:14:39.894Z,56.33
2022-07-29T15:15:39.870Z,56.10
2022-07-29T15:16:43.838Z,54.93
2022-07-29T15:17:39.829Z,54.85
2022-07-29T15:18:39.808Z,54.69
2022-07-29T15:19:39.785Z,53.93
2022-07-29T15:20:39.761Z,53.68
2022-07-29T15:21:41.605Z,54.39
2022-07-29T15:22:39.713Z,53.71
2022-07-29T15:23:39.697Z,54.36
2022-07-29T15:24:39.668Z,53.34
2022-07-29T15:25:39.647Z,52.41
2022-07-29T15:26:39.625Z,53.09
2022-07-29T15:27:39.609Z,53.03
2022-07-29T15:28:39.579Z,53.29
2022-07-29T15:29:39.557Z,53.61
2022-07-29T15:30:39.544Z,53.25
2022-07-29T15:31:39.602Z,52.70
2022-07-29T15:32:39.491Z,53.13
2022-07-29T15:33:39.473Z,52.95
2022-07-29T15:34:39.445Z,53.09
2022-07-29T15:35:40.118Z,53.58
2022-07-29T15:36:52.071Z,53.85
2022-07-29T15:37:48.613Z,54.41
2022-07-29T15:38:41.598Z,55.13
2022-07-29T15:39:39.333Z,56.96
2022-07-29T15:40:39.315Z,56.96
2022-07-29T15:41:39.315Z,56.89
2022-07-29T15:42:39.268Z,56.43
2022-07-29T15:43:39.238Z,55.36
2022-07-29T15:44:39.220Z,54.80
2022-07-29T15:45:40.419Z,54.83
2022-07-29T15:46:39.175Z,54.05
2022-07-29T15:47:39.176Z,53.88
2022-07-29T15:48:39.176Z,54.75
2022-07-29T15:49:48.470Z,56.14
2022-07-29T15:50:39.081Z,55.48
2022-07-29T15:51:39.056Z,54.93
2022-07-29T15:52:39.037Z,54.07
2022-07-29T15:53:39.014Z,53.09
2022-07-29T15:54:38.991Z,53.58
2022-07-29T15:55:38.967Z,53.46
2022-07-29T15:56:38.942Z,53.68
2022-07-29T15:57:38.920Z,54.02
2022-07-29T15:58:38.902Z,54.41
2022-07-29T15:59:38.874Z,54.11
2022-07-29T16:00:38.874Z,54.19
2022-07-29T16:01:42.535Z,54.44
2022-07-29T16:02:38.806Z,54.14
2022-07-29T16:03:41.009Z,53.09
2022-07-29T16:04:38.760Z,52.80
2022-07-29T16:05:38.741Z,51.92
2022-07-29T16:06:38.714Z,52.09
2022-07-29T16:07:38.693Z,52.09
2022-07-29T16:08:38.669Z,51.80
2022-07-29T16:09:38.646Z,51.92
2022-07-29T16:10:38.625Z,51.92
2022-07-29T16:11:38.599Z,51.02
2022-07-29T16:12:38.574Z,52.46
2022-07-29T16:13:38.556Z,52.58
2022-07-29T16:14:38.560Z,52.48
2022-07-29T16:15:38.510Z,52.61
2022-07-29T16:16:38.529Z,52.12
2022-07-29T16:17:38.463Z,52.39
2022-07-29T16:18:38.444Z,52.78
2022-07-29T16:19:38.417Z,52.97
2022-07-29T16:20:38.406Z,53.34
2022-07-29T16:21:38.374Z,54.09
2022-07-29T16:22:38.350Z,54.14
2022-07-29T16:23:38.328Z,54.44
2022-07-29T16:24:38.305Z,54.21
2022-07-29T16:25:58.461Z,54.80
2022-07-29T16:26:38.257Z,54.34
2022-07-29T16:27:38.444Z,54.27
2022-07-29T16:28:38.212Z,53.88
2022-07-29T16:29:38.189Z,54.00
2022-07-29T16:30:38.162Z,53.32
2022-07-29T16:31:38.203Z,54.07
2022-07-29T16:32:38.117Z,53.91
2022-07-29T16:33:55.506Z,53.15
2022-07-29T16:34:38.069Z,52.56
2022-07-29T16:35:39.591Z,52.76
2022-07-29T16:36:38.028Z,52.56
2022-07-29T16:37:38.002Z,52.49
2022-07-29T16:38:37.983Z,52.20
2022-07-29T16:39:37.958Z,52.20
2022-07-29T16:40:37.938Z,51.90
2022-07-29T16:41:37.916Z,53.08
2022-07-29T16:42:46.736Z,52.51
2022-07-29T16:43:37.867Z,52.12
2022-07-29T16:44:37.848Z,52.32
2022-07-29T16:45:45.471Z,51.86
2022-07-29T16:46:39.057Z,52.25
2022-07-29T16:47:37.780Z,52.08
2022-07-29T16:48:37.774Z,51.32
2022-07-29T16:49:37.731Z,51.10
2022-07-29T16:50:37.709Z,51.68
2022-07-29T16:51:37.689Z,52.88
2022-07-29T16:52:37.665Z,54.05
2022-07-29T16:53:37.646Z,54.54
2022-07-29T16:54:37.622Z,53.96
2022-07-29T16:55:37.599Z,54.15
2022-07-29T16:56:37.576Z,55.10
2022-07-29T16:57:37.559Z,54.83
2022-07-29T16:58:40.512Z,54.38
2022-07-29T16:59:43.354Z,54.40
2022-07-29T17:00:37.592Z,54.28
2022-07-29T17:01:37.497Z,54.17
2022-07-29T17:02:37.447Z,54.47
2022-07-29T17:03:37.426Z,54.28
2022-07-29T17:04:37.407Z,55.00
2022-07-29T17:05:53.631Z,55.42
2022-07-29T17:06:37.359Z,54.96
2022-07-29T17:07:37.339Z,55.03
2022-07-29T17:08:37.315Z,55.03
2022-07-29T17:09:37.289Z,55.62
2022-07-29T17:10:37.269Z,55.32
2022-07-29T17:11:51.799Z,56.27
2022-07-29T17:12:37.225Z,57.42
2022-07-29T17:13:37.201Z,56.96
2022-07-29T17:14:37.191Z,56.93
2022-07-29T17:15:44.319Z,58.56
2022-07-29T17:17:55.348Z,58.59
2022-07-29T17:18:41.048Z,58.50
2022-07-29T17:20:44.979Z,58.86
2022-07-29T17:21:48.874Z,59.41
2022-07-29T17:23:48.859Z,60.26
2022-07-29T17:24:48.834Z,60.46
2022-07-29T17:26:41.700Z,59.70
2022-07-29T17:27:41.656Z,60.29
2022-07-29T17:29:46.115Z,60.85
2022-07-29T17:30:46.076Z,61.14
2022-07-29T17:32:49.998Z,62.25
2022-07-29T17:33:49.969Z,62.63
2022-07-29T17:35:53.895Z,62.51
2022-07-29T17:36:53.861Z,62.15
2022-07-29T17:38:57.826Z,62.28
2022-07-29T17:40:00.386Z,62.18
2022-07-29T17:42:01.667Z,62.32
2022-07-29T17:43:01.640Z,62.80
2022-07-29T17:45:05.566Z,62.70
2022-07-29T17:46:05.528Z,62.51
2022-07-29T17:48:09.466Z,62.99
2022-07-29T17:49:09.483Z,63.09
2022-07-29T17:51:13.353Z,63.09
2022-07-29T17:52:13.314Z,63.19
2022-07-29T17:54:17.244Z,62.83
2022-07-29T17:55:17.213Z,63.39
2022-07-29T17:57:21.142Z,64.32
2022-07-29T17:58:21.103Z,64.13
2022-07-29T18:00:25.015Z,64.52
2022-07-29T18:01:25.028Z,64.32
2022-07-29T18:03:28.914Z,63.94
2022-07-29T18:04:28.875Z,64.52
2022-07-29T18:06:21.721Z,64.91
2022-07-29T18:07:21.688Z,65.08
2022-07-29T18:09:25.611Z,65.27
2022-07-29T18:10:25.576Z,65.46
2022-07-29T18:12:29.489Z,66.37
2022-07-29T18:13:29.462Z,67.15
2022-07-29T18:15:33.388Z,66.76
2022-07-29T18:16:33.445Z,67.54
2022-07-29T18:18:37.266Z,67.38
2022-07-29T18:19:37.227Z,67.08
2022-07-29T18:21:51.892Z,67.15
2022-07-29T18:22:41.111Z,67.67
2022-07-29T18:24:45.036Z,67.73
2022-07-29T18:25:44.999Z,68.02
2022-07-29T18:27:48.903Z,67.93
2022-07-29T18:28:48.874Z,68.32
2022-07-29T18:30:52.882Z,68.67
2022-07-29T18:31:52.763Z,68.87
2022-07-29T18:33:19.231Z,68.87
2022-07-29T18:33:55.241Z,68.77
2022-07-29T18:34:52.701Z,69.15
2022-07-29T18:35:52.664Z,68.67
2022-07-29T18:36:52.632Z,69.45
2022-07-29T18:38:01.109Z,69.51
2022-07-29T18:38:52.581Z,70.00
2022-07-29T18:39:54.377Z,69.80
2022-07-29T18:40:52.533Z,70.19
2022-07-29T18:41:53.309Z,70.15
2022-07-29T18:42:52.483Z,70.25
2022-07-29T18:43:52.455Z,70.54
2022-07-29T18:44:52.435Z,70.45
2022-07-29T18:45:52.409Z,69.76
2022-07-29T18:46:52.558Z,70.45
2022-07-29T18:47:52.351Z,70.45
2022-07-29T18:48:52.425Z,70.15
2022-07-29T18:49:52.298Z,70.45
2022-07-29T18:50:52.273Z,70.54
2022-07-29T18:51:52.245Z,70.45
2022-07-29T18:52:52.226Z,70.35
2022-07-29T18:53:52.193Z,70.35
2022-07-29T18:54:52.166Z,70.83
2022-07-29T18:55:52.141Z,70.83
2022-07-29T18:56:52.117Z,70.73
2022-07-29T18:57:54.271Z,70.83
2022-07-29T18:58:52.061Z,70.83
2022-07-29T18:59:52.037Z,71.03
2022-07-29T19:00:52.013Z,70.83
2022-07-29T19:01:52.068Z,70.73
2022-07-29T19:02:52.202Z,70.93
2022-07-29T19:03:51.935Z,71.12
2022-07-29T19:04:51.909Z,71.12
2022-07-29T19:05:51.885Z,71.42
2022-07-29T19:06:51.860Z,71.12
2022-07-29T19:07:51.824Z,71.03
2022-07-29T19:08:51.803Z,71.70
2022-07-29T19:09:51.815Z,71.28
2022-07-29T19:10:51.752Z,71.67
2022-07-29T19:11:55.736Z,71.58
2022-07-29T19:12:51.703Z,71.86
2022-07-29T19:13:51.673Z,71.48
2022-07-29T19:14:51.647Z,71.86
2022-07-29T19:15:51.660Z,72.06
2022-07-29T19:16:51.594Z,71.77
2022-07-29T19:17:51.586Z,71.86
2022-07-29T19:18:51.552Z,71.48
2022-07-29T19:19:51.515Z,72.16
2022-07-29T19:20:51.498Z,72.25
2022-07-29T19:21:51.472Z,72.45
2022-07-29T19:22:51.434Z,71.93
2022-07-29T19:24:06.025Z,72.64
2022-07-29T19:24:51.381Z,72.64
2022-07-29T19:25:53.396Z,73.09
2022-07-29T19:26:51.330Z,73.19
2022-07-29T19:27:51.307Z,73.28
2022-07-29T19:28:51.278Z,73.09
2022-07-29T19:29:51.253Z,73.09
2022-07-29T19:30:51.278Z,73.19
2022-07-29T19:31:51.221Z,73.86
2022-07-29T19:32:51.186Z,74.06
2022-07-29T19:33:51.148Z,74.16
2022-07-29T19:34:51.126Z,74.06
2022-07-29T19:35:54.747Z,74.35
2022-07-29T19:36:51.066Z,73.96
2022-07-29T19:37:51.046Z,74.16
2022-07-29T19:38:51.018Z,74.35
2022-07-29T19:39:50.987Z,74.35
2022-07-29T19:40:50.960Z,73.96
2022-07-29T19:41:50.932Z,74.26
2022-07-29T19:42:50.910Z,74.54
2022-07-29T19:43:53.092Z,74.45
2022-07-29T19:44:50.859Z,74.26
2022-07-29T19:45:50.834Z,74.41
2022-07-29T19:46:50.899Z,74.60
2022-07-29T19:47:50.779Z,74.90
2022-07-29T19:48:50.820Z,74.51
2022-07-29T19:49:50.725Z,75.09
2022-07-29T19:50:50.698Z,74.80
2022-07-29T19:51:50.680Z,75.28
2022-07-29T19:52:50.644Z,75.77
2022-07-29T19:53:50.629Z,75.67
2022-07-29T19:54:50.592Z,75.38
2022-07-29T19:55:50.572Z,75.28
2022-07-29T19:56:50.536Z,75.38
2022-07-29T19:57:50.517Z,75.34
2022-07-29T19:58:50.496Z,75.67
2022-07-29T19:59:50.464Z,75.83
2022-07-29T20:00:50.431Z,75.54
2022-07-29T20:01:50.480Z,75.92
2022-07-29T20:02:50.407Z,76.41
2022-07-29T20:03:50.360Z,76.31
2022-07-29T20:04:50.333Z,76.12
2022-07-29T20:05:50.304Z,75.96
2022-07-29T20:06:50.278Z,76.60
2022-07-29T20:07:50.245Z,76.70
2022-07-29T20:08:50.218Z,76.51
2022-07-29T20:09:50.191Z,76.79
2022-07-29T20:10:50.168Z,76.79
2022-07-29T20:11:50.138Z,76.70
2022-07-29T20:12:50.112Z,76.79
2022-07-29T20:13:50.093Z,76.79
2022-07-29T20:14:50.069Z,77.19
2022-07-29T20:15:50.065Z,77.57
2022-07-29T20:16:50.007Z,77.37
2022-07-29T20:17:52.867Z,77.19
2022-07-29T20:18:49.957Z,77.47
2022-07-29T20:19:49.932Z,77.57
2022-07-29T20:20:49.898Z,77.37
2022-07-29T20:21:49.873Z,77.19
2022-07-29T20:22:49.845Z,77.96
2022-07-29T20:23:49.817Z,77.76
2022-07-29T20:24:49.792Z,77.86
2022-07-29T20:25:49.759Z,78.05
2022-07-29T20:26:49.733Z,77.96
2022-07-29T20:27:49.705Z,78.25
2022-07-29T20:28:49.826Z,77.76
2022-07-29T20:29:49.661Z,78.64
2022-07-29T20:30:49.669Z,78.34
2022-07-29T20:31:52.894Z,77.76
2022-07-29T20:32:49.571Z,77.86
2022-07-29T20:33:49.556Z,78.31
2022-07-29T20:34:49.575Z,78.64
2022-07-29T20:35:49.489Z,78.25
2022-07-29T20:36:49.467Z,77.92
2022-07-29T20:37:52.356Z,78.50
2022-07-29T20:38:49.407Z,78.41
2022-07-29T20:39:49.383Z,79.14
2022-07-29T20:40:49.357Z,79.62
2022-07-29T20:41:49.328Z,79.43
2022-07-29T20:42:49.299Z,79.62
2022-07-29T20:43:49.271Z,79.91
2022-07-29T20:44:49.791Z,79.33
2022-07-29T20:45:49.276Z,79.52
2022-07-29T20:46:49.194Z,79.72
2022-07-29T20:47:49.163Z,79.43
2022-07-29T20:48:49.177Z,80.59
2022-07-29T20:49:49.115Z,80.20
2022-07-29T20:50:49.082Z,80.55
2022-07-29T20:51:49.057Z,80.74
2022-07-29T20:52:49.031Z,80.65
2022-07-29T20:53:49.017Z,80.84
2022-07-29T20:54:48.973Z,80.94
2022-07-29T20:55:48.944Z,81.23
2022-07-29T20:56:48.920Z,81.04
2022-07-29T20:57:48.894Z,81.04
2022-07-29T20:58:48.864Z,80.94
2022-07-29T20:59:48.831Z,81.32
2022-07-29T21:00:48.810Z,81.04
2022-07-29T21:01:48.815Z,81.04
2022-07-29T21:02:48.784Z,81.71
2022-07-29T21:03:48.728Z,81.52
2022-07-29T21:04:48.697Z,81.42
2022-07-29T21:05:48.668Z,81.62
2022-07-29T21:06:48.642Z,81.62
2022-07-29T21:07:48.617Z,81.04
2022-07-29T21:08:48.586Z,81.23
2022-07-29T21:09:48.563Z,81.71
2022-07-29T21:10:48.535Z,81.32
2022-07-29T21:11:48.511Z,81.67
2022-07-29T21:12:48.479Z,81.81
2022-07-29T21:13:48.452Z,81.77
2022-07-29T21:14:48.421Z,81.96
2022-07-29T21:15:48.450Z,81.57
2022-07-29T21:16:48.365Z,81.67
2022-07-29T21:17:48.340Z,81.57
2022-07-29T21:18:48.311Z,81.48
2022-07-29T21:19:48.294Z,81.77
2022-07-29T21:20:48.259Z,81.38
2022-07-29T21:21:48.235Z,81.87
2022-07-29T21:22:48.209Z,81.77
2022-07-29T21:23:48.187Z,81.96
2022-07-29T21:24:48.150Z,81.77
2022-07-29T21:25:48.123Z,82.15
2022-07-29T21:27:11.037Z,82.25
2022-07-29T21:27:48.062Z,81.96
2022-07-29T21:28:50.185Z,82.45
2022-07-29T21:29:48.006Z,82.25
2022-07-29T21:30:47.995Z,82.25
2022-07-29T21:31:47.968Z,82.45
2022-07-29T21:32:48.007Z,82.54
2022-07-29T21:33:47.923Z,82.60
2022-07-29T21:34:47.872Z,82.35
2022-07-29T21:36:20.339Z,82.45
2022-07-29T21:36:48.951Z,82.45
2022-07-29T21:37:47.792Z,82.35
2022-07-29T21:38:48.303Z,82.21
2022-07-29T21:39:47.733Z,82.79
2022-07-29T21:40:47.828Z,82.69
2022-07-29T21:41:47.676Z,82.79
2022-07-29T21:42:47.640Z,82.69
2022-07-29T21:43:47.615Z,82.11
2022-07-29T21:44:47.587Z,81.82
2022-07-29T21:45:47.593Z,82.69
2022-07-29T21:46:47.529Z,82.89
2022-07-29T21:47:47.507Z,82.79
2022-07-29T21:48:47.521Z,83.37
2022-07-29T21:49:47.461Z,83.27
2022-07-29T21:50:47.419Z,83.37
2022-07-29T21:51:47.388Z,84.05
2022-07-29T21:52:47.360Z,83.56
2022-07-29T21:53:47.334Z,83.08
2022-07-29T21:54:47.303Z,83.75
2022-07-29T21:55:47.274Z,83.62
2022-07-29T21:56:51.028Z,83.81
2022-07-29T21:57:47.220Z,83.62
2022-07-29T21:58:47.195Z,84.00
2022-07-29T21:59:47.163Z,83.81
2022-07-29T22:00:47.135Z,84.00
2022-07-29T22:01:47.161Z,84.20
2022-07-29T22:02:47.080Z,84.48
2022-07-29T22:03:47.052Z,84.30
2022-07-29T22:04:47.059Z,84.39
2022-07-29T22:05:47.002Z,84.58
2022-07-29T22:06:46.971Z,84.54
2022-07-29T22:07:56.453Z,84.44
2022-07-29T22:08:46.916Z,84.93
2022-07-29T22:09:46.881Z,85.12
2022-07-29T22:10:46.852Z,84.74
2022-07-29T22:11:46.824Z,85.02
2022-07-29T22:12:46.798Z,85.22
2022-07-29T22:13:46.783Z,85.50
2022-07-29T22:14:46.739Z,85.41
2022-07-29T22:15:47.278Z,86.08
2022-07-29T22:16:46.765Z,86.08
2022-07-29T22:17:46.656Z,85.80
2022-07-29T22:18:46.636Z,86.76
2022-07-29T22:19:46.622Z,86.57
2022-07-29T22:20:46.579Z,86.91
2022-07-29T22:21:46.540Z,87.20
2022-07-29T22:22:46.519Z,87.44
2022-07-29T22:23:46.495Z,87.34
2022-07-29T22:24:46.458Z,87.24
2022-07-29T22:25:46.433Z,87.20
2022-07-29T22:26:46.397Z,87.30
2022-07-29T22:27:46.369Z,87.10
2022-07-29T22:28:46.348Z,87.20
2022-07-29T22:29:46.311Z,87.97
2022-07-29T22:30:46.318Z,87.78
2022-07-29T22:31:46.258Z,87.68
2022-07-29T22:32:46.224Z,87.78
2022-07-29T22:33:46.202Z,87.78
2022-07-29T22:34:46.162Z,87.78
2022-07-29T22:35:48.730Z,88.17
2022-07-29T22:36:46.116Z,88.07
2022-07-29T22:37:46.083Z,88.36
2022-07-29T22:38:50.257Z,88.36
2022-07-29T22:39:46.021Z,88.31
2022-07-29T22:40:46.003Z,88.51
2022-07-29T22:41:45.963Z,88.31
2022-07-29T22:42:45.934Z,88.79
2022-07-29T22:43:45.902Z,88.65
2022-07-29T22:44:45.881Z,88.70
2022-07-29T22:45:45.915Z,88.51
2022-07-29T22:46:45.819Z,88.41
2022-07-29T22:47:48.287Z,88.45
2022-07-29T22:48:45.811Z,88.89
2022-07-29T22:49:45.734Z,88.70
2022-07-29T22:50:45.707Z,88.41
2022-07-29T22:51:45.677Z,88.89
2022-07-29T22:52:45.651Z,89.09
2022-07-29T22:53:45.621Z,89.18
2022-07-29T22:54:45.610Z,89.67
2022-07-29T22:55:45.558Z,89.37
2022-07-29T22:56:45.528Z,89.76
2022-07-29T22:57:45.513Z,89.28
2022-07-29T22:58:45.468Z,89.67
2022-07-29T22:59:45.445Z,89.47
2022-07-29T23:00:45.417Z,89.95
2022-07-29T23:01:45.421Z,89.47
2022-07-29T23:02:45.352Z,89.37
2022-07-29T23:03:50.834Z,89.47
2022-07-29T23:04:45.301Z,89.76
2022-07-29T23:05:45.276Z,89.37
2022-07-29T23:06:45.237Z,89.86
2022-07-29T23:07:45.206Z,90.05
2022-07-29T23:08:45.182Z,89.47
2022-07-29T23:09:45.162Z,89.76
2022-07-29T23:10:45.124Z,89.86
2022-07-29T23:11:45.094Z,89.95
2022-07-29T23:12:45.063Z,90.05
2022-07-29T23:13:45.038Z,89.91
2022-07-29T23:14:45.004Z,89.72
2022-07-29T23:15:44.975Z,89.72
2022-07-29T23:16:44.991Z,89.81
2022-07-29T23:17:44.918Z,90.20
2022-07-29T23:18:44.887Z,90.20
2022-07-29T23:19:44.859Z,89.81
2022-07-29T23:20:44.830Z,90.30
2022-07-29T23:21:44.797Z,90.30
2022-07-29T23:22:44.767Z,90.20
2022-07-29T23:23:44.770Z,90.10
2022-07-29T23:24:44.717Z,90.10
2022-07-29T23:27:16.279Z,90.39
2022-07-29T23:28:16.241Z,90.48
2022-07-29T23:30:20.171Z,90.68
2022-07-29T23:31:20.187Z,90.48
2022-07-29T23:33:24.064Z,90.48
2022-07-29T23:34:24.019Z,90.68
2022-07-29T23:36:27.966Z,90.48
2022-07-29T23:37:27.917Z,90.39
2022-07-29T23:39:31.837Z,90.54
2022-07-29T23:40:31.798Z,90.92
2022-07-29T23:42:35.716Z,90.83
2022-07-29T23:43:35.672Z,90.83
2022-07-29T23:45:44.975Z,91.41
2022-07-29T23:46:39.675Z,91.02
2022-07-29T23:48:43.557Z,91.21
2022-07-29T23:49:43.478Z,91.21
2022-07-29T23:51:48.012Z,91.60
2022-07-29T23:52:47.763Z,91.69
2022-07-29T23:54:51.511Z,91.79
2022-07-29T23:55:51.460Z,91.89
2022-07-29T23:57:55.371Z,91.99
2022-07-29T23:58:55.337Z,91.84
